createdAt,value
2022-09-14T00:00:22.014Z,22.45
2022-09-14T00:01:25.697Z,22.45
2022-09-14T00:02:22.145Z,22.45
2022-09-14T00:03:22.041Z,22.43
2022-09-14T00:04:21.974Z,22.45
2022-09-14T00:05:21.960Z,22.43
2022-09-14T00:06:21.951Z,22.43
2022-09-14T00:07:21.969Z,22.45
2022-09-14T00:08:21.928Z,22.45
2022-09-14T00:09:21.921Z,22.45
2022-09-14T00:10:21.907Z,22.45
2022-09-14T00:11:21.896Z,22.45
2022-09-14T00:12:21.915Z,22.45
2022-09-14T00:13:21.876Z,22.43
2022-09-14T00:14:21.898Z,22.43
2022-09-14T00:15:21.854Z,22.45
2022-09-14T00:16:21.951Z,22.43
2022-09-14T00:17:21.831Z,22.43
2022-09-14T00:18:21.820Z,22.43
2022-09-14T00:19:21.861Z,22.43
2022-09-14T00:20:21.800Z,22.43
2022-09-14T00:21:21.790Z,22.43
2022-09-14T00:22:21.778Z,22.45
2022-09-14T00:23:21.769Z,22.43
2022-09-14T00:24:21.781Z,22.43
2022-09-14T00:25:21.745Z,22.45
2022-09-14T00:26:21.746Z,22.43
2022-09-14T00:27:21.723Z,22.43
2022-09-14T00:28:21.715Z,22.43
2022-09-14T00:29:21.723Z,22.43
2022-09-14T00:30:21.691Z,22.43
2022-09-14T00:31:21.736Z,22.42
2022-09-14T00:32:21.669Z,22.42
2022-09-14T00:33:21.659Z,22.43
2022-09-14T00:34:21.651Z,22.43
2022-09-14T00:35:21.744Z,22.42
2022-09-14T00:36:21.661Z,22.43
2022-09-14T00:37:21.619Z,22.43
2022-09-14T00:38:21.608Z,22.43
2022-09-14T00:39:21.593Z,22.43
2022-09-14T00:40:21.633Z,22.43
2022-09-14T00:41:21.603Z,22.42
2022-09-14T00:42:21.563Z,22.43
2022-09-14T00:43:21.549Z,22.42
2022-09-14T00:44:21.539Z,22.42
2022-09-14T00:45:21.596Z,22.43
2022-09-14T00:46:21.520Z,22.42
2022-09-14T00:47:21.506Z,22.43
2022-09-14T00:48:21.496Z,22.42
2022-09-14T00:49:21.507Z,22.43
2022-09-14T00:50:21.512Z,22.42
2022-09-14T00:51:21.571Z,22.43
2022-09-14T00:52:21.455Z,22.43
2022-09-14T00:53:21.441Z,22.42
2022-09-14T00:54:21.456Z,22.42
2022-09-14T00:55:21.421Z,22.42
2022-09-14T00:56:21.411Z,22.42
2022-09-14T00:57:21.420Z,22.42
2022-09-14T00:58:21.411Z,22.42
2022-09-14T00:59:21.376Z,22.42
2022-09-14T01:00:21.368Z,22.43
2022-09-14T01:01:21.422Z,22.43
2022-09-14T01:02:21.437Z,22.42
2022-09-14T01:03:21.355Z,22.42
2022-09-14T01:04:21.327Z,22.42
2022-09-14T01:05:21.311Z,22.42
2022-09-14T01:06:21.304Z,22.42
2022-09-14T01:07:21.335Z,22.42
2022-09-14T01:08:21.286Z,22.42
2022-09-14T01:09:21.269Z,22.42
2022-09-14T01:10:21.259Z,22.40
2022-09-14T01:11:21.247Z,22.40
2022-09-14T01:12:21.264Z,22.42
2022-09-14T01:13:21.226Z,22.42
2022-09-14T01:14:21.214Z,22.42
2022-09-14T01:15:21.226Z,22.40
2022-09-14T01:16:21.226Z,22.40
2022-09-14T01:17:21.183Z,22.40
2022-09-14T01:18:21.173Z,22.42
2022-09-14T01:19:21.185Z,22.40
2022-09-14T01:20:21.149Z,22.40
2022-09-14T01:21:21.141Z,22.42
2022-09-14T01:22:21.149Z,22.42
2022-09-14T01:23:21.140Z,22.40
2022-09-14T01:24:21.106Z,22.42
2022-09-14T01:25:21.099Z,22.40
2022-09-14T01:26:21.083Z,22.40
2022-09-14T01:27:21.097Z,22.42
2022-09-14T01:28:21.083Z,22.42
2022-09-14T01:29:21.055Z,22.42
2022-09-14T01:30:21.062Z,22.40
2022-09-14T01:31:21.089Z,22.42
2022-09-14T01:32:21.040Z,22.42
2022-09-14T01:33:21.010Z,22.40
2022-09-14T01:34:20.997Z,22.42
2022-09-14T01:35:20.990Z,22.43
2022-09-14T01:36:20.977Z,22.40
2022-09-14T01:37:20.991Z,22.40
2022-09-14T01:38:20.954Z,22.40
2022-09-14T01:39:20.975Z,22.42
2022-09-14T01:40:20.977Z,22.40
2022-09-14T01:41:20.947Z,22.40
2022-09-14T01:42:20.911Z,22.42
2022-09-14T01:43:20.938Z,22.39
2022-09-14T01:44:20.890Z,22.40
2022-09-14T01:45:20.953Z,22.40
2022-09-14T01:46:20.868Z,22.40
2022-09-14T01:47:20.868Z,22.40
2022-09-14T01:48:20.846Z,22.40
2022-09-14T01:49:20.858Z,22.40
2022-09-14T01:50:20.826Z,22.40
2022-09-14T01:51:20.817Z,22.40
2022-09-14T01:52:20.805Z,22.40
2022-09-14T01:53:20.807Z,22.40
2022-09-14T01:54:20.803Z,22.40
2022-09-14T01:55:20.919Z,22.40
2022-09-14T01:56:20.760Z,22.40
2022-09-14T01:57:20.751Z,22.40
2022-09-14T01:58:20.738Z,22.40
2022-09-14T01:59:20.740Z,22.40
2022-09-14T02:00:20.717Z,22.40
2022-09-14T02:01:20.751Z,22.42
2022-09-14T02:02:20.781Z,22.40
2022-09-14T02:03:20.686Z,22.40
2022-09-14T02:04:20.674Z,22.40
2022-09-14T02:05:20.663Z,22.40
2022-09-14T02:06:20.673Z,22.40
2022-09-14T02:07:20.643Z,22.40
2022-09-14T02:08:20.629Z,22.40
2022-09-14T02:09:20.619Z,22.39
2022-09-14T02:10:20.609Z,22.40
2022-09-14T02:11:20.663Z,22.39
2022-09-14T02:12:20.590Z,22.39
2022-09-14T02:13:20.576Z,22.39
2022-09-14T02:14:20.589Z,22.39
2022-09-14T02:15:20.557Z,22.39
2022-09-14T02:16:20.616Z,22.39
2022-09-14T02:17:20.570Z,22.40
2022-09-14T02:18:20.524Z,22.39
2022-09-14T02:19:23.644Z,22.39
2022-09-14T02:20:20.501Z,22.40
2022-09-14T02:21:20.501Z,22.39
2022-09-14T02:22:20.483Z,22.39
2022-09-14T02:23:20.490Z,22.39
2022-09-14T02:24:20.460Z,22.39
2022-09-14T02:25:20.447Z,22.39
2022-09-14T02:26:20.460Z,22.39
2022-09-14T02:27:20.449Z,22.39
2022-09-14T02:28:20.415Z,22.39
2022-09-14T02:29:20.425Z,22.37
2022-09-14T02:30:20.417Z,22.39
2022-09-14T02:31:20.446Z,22.39
2022-09-14T02:32:20.375Z,22.39
2022-09-14T02:33:20.361Z,22.39
2022-09-14T02:34:20.353Z,22.39
2022-09-14T02:35:20.377Z,22.37
2022-09-14T02:36:20.331Z,22.37
2022-09-14T02:37:20.320Z,22.39
2022-09-14T02:38:20.311Z,22.39
2022-09-14T02:39:20.297Z,22.39
2022-09-14T02:40:20.364Z,22.39
2022-09-14T02:41:20.298Z,22.37
2022-09-14T02:42:20.269Z,22.37
2022-09-14T02:43:20.368Z,22.37
2022-09-14T02:44:20.246Z,22.37
2022-09-14T02:45:20.235Z,22.39
2022-09-14T02:46:20.351Z,22.37
2022-09-14T02:47:20.214Z,22.39
2022-09-14T02:48:20.204Z,22.39
2022-09-14T02:49:20.213Z,22.37
2022-09-14T02:50:20.185Z,22.39
2022-09-14T02:51:20.170Z,22.39
2022-09-14T02:52:20.159Z,22.37
2022-09-14T02:53:20.172Z,22.37
2022-09-14T02:54:20.160Z,22.39
2022-09-14T02:55:20.131Z,22.39
2022-09-14T02:56:20.119Z,22.37
2022-09-14T02:57:20.108Z,22.39
2022-09-14T02:58:20.097Z,22.39
2022-09-14T02:59:20.132Z,22.39
2022-09-14T03:00:20.095Z,22.39
2022-09-14T03:01:20.137Z,22.37
2022-09-14T03:02:20.178Z,22.39
2022-09-14T03:03:20.041Z,22.37
2022-09-14T03:04:20.034Z,22.39
2022-09-14T03:05:20.056Z,22.39
2022-09-14T03:06:20.029Z,22.37
2022-09-14T03:07:20.014Z,22.37
2022-09-14T03:08:19.995Z,22.37
2022-09-14T03:09:19.985Z,22.37
2022-09-14T03:10:19.972Z,22.37
2022-09-14T03:11:19.988Z,22.37
2022-09-14T03:12:19.948Z,22.37
2022-09-14T03:13:19.943Z,22.37
2022-09-14T03:14:19.948Z,22.37
2022-09-14T03:15:19.945Z,22.37
2022-09-14T03:16:19.934Z,22.37
2022-09-14T03:17:19.893Z,22.36
2022-09-14T03:18:19.888Z,22.37
2022-09-14T03:19:19.892Z,22.37
2022-09-14T03:20:19.861Z,22.37
2022-09-14T03:21:19.856Z,22.39
2022-09-14T03:22:19.847Z,22.37
2022-09-14T03:23:19.863Z,22.37
2022-09-14T03:24:19.819Z,22.37
2022-09-14T03:25:19.805Z,22.37
2022-09-14T03:26:19.797Z,22.37
2022-09-14T03:27:19.794Z,22.37
2022-09-14T03:28:19.776Z,22.36
2022-09-14T03:29:19.783Z,22.36
2022-09-14T03:30:19.753Z,22.37
2022-09-14T03:31:19.852Z,22.37
2022-09-14T03:32:19.761Z,22.37
2022-09-14T03:33:19.722Z,22.37
2022-09-14T03:34:19.711Z,22.36
2022-09-14T03:35:19.699Z,22.36
2022-09-14T03:36:19.692Z,22.36
2022-09-14T03:37:19.698Z,22.37
2022-09-14T03:38:19.666Z,22.37
2022-09-14T03:39:19.654Z,22.37
2022-09-14T03:40:22.088Z,22.37
2022-09-14T03:41:19.633Z,22.37
2022-09-14T03:42:19.646Z,22.36
2022-09-14T03:43:19.611Z,22.35
2022-09-14T03:44:19.602Z,22.36
2022-09-14T03:45:19.627Z,22.36
2022-09-14T03:46:19.626Z,22.36
2022-09-14T03:47:19.682Z,22.35
2022-09-14T03:48:19.561Z,22.37
2022-09-14T03:49:19.547Z,22.36
2022-09-14T03:50:19.538Z,22.37
2022-09-14T03:51:19.549Z,22.36
2022-09-14T03:52:19.515Z,22.37
2022-09-14T03:53:19.503Z,22.37
2022-09-14T03:54:19.513Z,22.35
2022-09-14T03:55:19.485Z,22.37
2022-09-14T03:56:19.517Z,22.37
2022-09-14T03:57:19.463Z,22.37
2022-09-14T03:58:19.474Z,22.35
2022-09-14T03:59:19.462Z,22.36
2022-09-14T04:00:19.432Z,22.36
2022-09-14T04:01:19.585Z,22.36
2022-09-14T04:02:19.409Z,22.36
2022-09-14T04:03:19.566Z,22.36
2022-09-14T04:04:19.419Z,22.37
2022-09-14T04:05:21.825Z,22.36
2022-09-14T04:06:19.364Z,22.37
2022-09-14T04:07:19.352Z,22.36
2022-09-14T04:08:19.344Z,22.36
2022-09-14T04:09:19.330Z,22.37
2022-09-14T04:10:19.346Z,22.36
2022-09-14T04:11:19.318Z,22.36
2022-09-14T04:12:19.305Z,22.35
2022-09-14T04:13:19.289Z,22.36
2022-09-14T04:14:19.304Z,22.36
2022-09-14T04:15:19.267Z,22.36
2022-09-14T04:16:19.319Z,22.35
2022-09-14T04:17:19.266Z,22.36
2022-09-14T04:18:19.236Z,22.36
2022-09-14T04:19:19.285Z,22.36
2022-09-14T04:20:19.246Z,22.36
2022-09-14T04:21:19.201Z,22.36
2022-09-14T04:22:19.192Z,22.36
2022-09-14T04:23:19.180Z,22.36
2022-09-14T04:24:19.518Z,22.35
2022-09-14T04:25:19.158Z,22.36
2022-09-14T04:26:19.170Z,22.36
2022-09-14T04:27:19.137Z,22.35
2022-09-14T04:28:20.399Z,22.37
2022-09-14T04:29:19.117Z,22.35
2022-09-14T04:30:19.108Z,22.35
2022-09-14T04:31:19.188Z,22.36
2022-09-14T04:32:19.108Z,22.35
2022-09-14T04:33:19.073Z,22.35
2022-09-14T04:34:19.083Z,22.36
2022-09-14T04:35:19.158Z,22.36
2022-09-14T04:36:19.044Z,22.35
2022-09-14T04:37:19.030Z,22.36
2022-09-14T04:38:19.043Z,22.33
2022-09-14T04:39:19.010Z,22.35
2022-09-14T04:40:19.093Z,22.36
2022-09-14T04:41:18.988Z,22.35
2022-09-14T04:42:18.979Z,22.35
2022-09-14T04:43:18.989Z,22.36
2022-09-14T04:44:18.956Z,22.36
2022-09-14T04:45:18.948Z,22.35
2022-09-14T04:46:19.006Z,22.36
2022-09-14T04:47:18.948Z,22.36
2022-09-14T04:48:18.912Z,22.35
2022-09-14T04:49:19.059Z,22.35
2022-09-14T04:50:18.897Z,22.36
2022-09-14T04:51:18.903Z,22.35
2022-09-14T04:52:18.871Z,22.36
2022-09-14T04:53:18.881Z,22.35
2022-09-14T04:54:18.850Z,22.35
2022-09-14T04:55:18.836Z,22.35
2022-09-14T04:56:18.849Z,22.35
2022-09-14T04:57:18.815Z,22.35
2022-09-14T04:58:18.804Z,22.35
2022-09-14T04:59:18.794Z,22.35
2022-09-14T05:00:18.783Z,22.35
2022-09-14T05:01:18.821Z,22.35
2022-09-14T05:02:18.888Z,22.35
2022-09-14T05:03:18.856Z,22.33
2022-09-14T05:04:18.775Z,22.35
2022-09-14T05:05:18.732Z,22.36
2022-09-14T05:06:18.718Z,22.35
2022-09-14T05:07:18.730Z,22.35
2022-09-14T05:08:18.700Z,22.35
2022-09-14T05:09:18.687Z,22.33
2022-09-14T05:10:18.701Z,22.33
2022-09-14T05:11:18.663Z,22.35
2022-09-14T05:12:18.655Z,22.35
2022-09-14T05:13:18.642Z,22.35
2022-09-14T05:14:18.657Z,22.35
2022-09-14T05:15:18.620Z,22.33
2022-09-14T05:16:18.693Z,22.35
2022-09-14T05:17:18.599Z,22.36
2022-09-14T05:18:18.590Z,22.33
2022-09-14T05:19:18.610Z,22.35
2022-09-14T05:20:18.597Z,22.35
2022-09-14T05:21:18.557Z,22.35
2022-09-14T05:22:18.548Z,22.35
2022-09-14T05:23:18.557Z,22.33
2022-09-14T05:24:18.532Z,22.36
2022-09-14T05:25:18.540Z,22.35
2022-09-14T05:26:18.503Z,22.33
2022-09-14T05:27:18.513Z,22.35
2022-09-14T05:28:18.482Z,22.35
2022-09-14T05:29:18.474Z,22.35
2022-09-14T05:30:18.461Z,22.35
2022-09-14T05:31:18.486Z,22.35
2022-09-14T05:32:18.458Z,22.33
2022-09-14T05:33:18.427Z,22.35
2022-09-14T05:34:18.419Z,22.36
2022-09-14T05:35:18.405Z,22.35
2022-09-14T05:36:18.420Z,22.36
2022-09-14T05:37:18.385Z,22.33
2022-09-14T05:38:18.377Z,22.35
2022-09-14T05:39:23.005Z,22.35
2022-09-14T05:40:19.404Z,22.35
2022-09-14T05:41:18.363Z,22.35
2022-09-14T05:42:18.355Z,22.35
2022-09-14T05:43:18.319Z,22.35
2022-09-14T05:44:18.308Z,22.33
2022-09-14T05:45:18.297Z,22.35
2022-09-14T05:46:18.376Z,22.33
2022-09-14T05:47:18.298Z,22.33
2022-09-14T05:48:18.266Z,22.33
2022-09-14T05:49:18.281Z,22.35
2022-09-14T05:50:18.266Z,22.35
2022-09-14T05:51:18.232Z,22.33
2022-09-14T05:52:18.225Z,22.35
2022-09-14T05:53:18.210Z,22.35
2022-09-14T05:54:18.207Z,22.33
2022-09-14T05:55:18.232Z,22.33
2022-09-14T05:56:18.180Z,22.33
2022-09-14T05:57:18.170Z,22.35
2022-09-14T05:58:18.156Z,22.33
2022-09-14T05:59:18.145Z,22.33
2022-09-14T06:00:18.160Z,22.35
2022-09-14T06:01:18.243Z,22.33
2022-09-14T06:02:18.489Z,22.33
2022-09-14T06:03:18.103Z,22.31
2022-09-14T06:04:18.093Z,22.33
2022-09-14T06:05:18.187Z,22.33
2022-09-14T06:06:18.084Z,22.33
2022-09-14T06:07:19.102Z,22.35
2022-09-14T06:08:18.050Z,22.33
2022-09-14T06:09:18.039Z,22.33
2022-09-14T06:10:18.027Z,22.33
2022-09-14T06:11:18.147Z,22.33
2022-09-14T06:12:18.016Z,22.33
2022-09-14T06:13:17.998Z,22.31
2022-09-14T06:14:18.005Z,22.33
2022-09-14T06:15:17.972Z,22.33
2022-09-14T06:16:17.965Z,22.31
2022-09-14T06:17:17.971Z,22.33
2022-09-14T06:18:17.943Z,22.33
2022-09-14T06:19:17.930Z,22.31
2022-09-14T06:20:17.939Z,22.31
2022-09-14T06:21:17.908Z,22.33
2022-09-14T06:22:17.898Z,22.33
2022-09-14T06:23:17.888Z,22.33
2022-09-14T06:24:17.899Z,22.33
2022-09-14T06:25:17.866Z,22.33
2022-09-14T06:26:17.854Z,22.33
2022-09-14T06:27:17.869Z,22.33
2022-09-14T06:28:17.836Z,22.33
2022-09-14T06:29:17.845Z,22.33
2022-09-14T06:30:17.810Z,22.35
2022-09-14T06:31:17.826Z,22.33
2022-09-14T06:32:17.788Z,22.33
2022-09-14T06:33:17.778Z,22.33
2022-09-14T06:34:17.789Z,22.33
2022-09-14T06:35:17.759Z,22.33
2022-09-14T06:36:17.748Z,22.33
2022-09-14T06:37:17.735Z,22.33
2022-09-14T06:38:17.725Z,22.33
2022-09-14T06:39:17.755Z,22.33
2022-09-14T06:40:17.799Z,22.35
2022-09-14T06:41:17.694Z,22.31
2022-09-14T06:42:17.680Z,22.33
2022-09-14T06:43:17.694Z,22.31
2022-09-14T06:44:17.660Z,22.33
2022-09-14T06:45:17.671Z,22.33
2022-09-14T06:46:17.639Z,22.31
2022-09-14T06:47:17.650Z,22.33
2022-09-14T06:48:17.618Z,22.35
2022-09-14T06:49:17.610Z,22.33
2022-09-14T06:50:17.593Z,22.33
2022-09-14T06:51:17.585Z,22.33
2022-09-14T06:52:17.607Z,22.33
2022-09-14T06:53:17.562Z,22.33
2022-09-14T06:54:17.551Z,22.31
2022-09-14T06:55:17.540Z,22.33
2022-09-14T06:56:17.531Z,22.33
2022-09-14T06:57:17.519Z,22.31
2022-09-14T06:58:17.532Z,22.31
2022-09-14T06:59:17.610Z,22.31
2022-09-14T07:00:17.489Z,22.31
2022-09-14T07:01:17.478Z,22.33
2022-09-14T07:02:17.510Z,22.31
2022-09-14T07:03:17.542Z,22.30
2022-09-14T07:04:17.449Z,22.33
2022-09-14T07:05:17.457Z,22.31
2022-09-14T07:06:17.431Z,22.31
2022-09-14T07:07:17.411Z,22.31
2022-09-14T07:08:17.400Z,22.31
2022-09-14T07:09:17.432Z,22.31
2022-09-14T07:10:17.384Z,22.33
2022-09-14T07:11:17.375Z,22.31
2022-09-14T07:12:17.379Z,22.31
2022-09-14T07:13:17.354Z,22.31
2022-09-14T07:14:17.355Z,22.30
2022-09-14T07:15:17.382Z,22.31
2022-09-14T07:16:17.318Z,22.31
2022-09-14T07:17:17.306Z,22.30
2022-09-14T07:18:17.406Z,22.31
2022-09-14T07:19:17.314Z,22.31
2022-09-14T07:20:17.276Z,22.33
2022-09-14T07:21:17.297Z,22.35
2022-09-14T07:22:17.256Z,22.33
2022-09-14T07:23:17.245Z,22.33
2022-09-14T07:24:17.246Z,22.31
2022-09-14T07:25:17.219Z,22.33
2022-09-14T07:26:17.266Z,22.35
2022-09-14T07:27:17.203Z,22.35
2022-09-14T07:28:17.187Z,22.35
2022-09-14T07:29:17.183Z,22.35
2022-09-14T07:30:17.182Z,22.36
2022-09-14T07:31:17.293Z,22.36
2022-09-14T07:32:17.147Z,22.37
2022-09-14T07:33:17.137Z,22.37
2022-09-14T07:34:17.121Z,22.39
2022-09-14T07:35:17.115Z,22.40
2022-09-14T07:36:17.105Z,22.40
2022-09-14T07:37:17.114Z,22.42
2022-09-14T07:38:26.956Z,22.42
2022-09-14T07:39:18.073Z,22.43
2022-09-14T07:40:17.171Z,22.43
2022-09-14T07:41:17.048Z,22.42
2022-09-14T07:42:17.059Z,22.43
2022-09-14T07:43:17.026Z,22.43
2022-09-14T07:44:17.021Z,22.45
2022-09-14T07:45:17.005Z,22.43
2022-09-14T07:46:17.099Z,22.43
2022-09-14T07:47:17.081Z,22.42
2022-09-14T07:48:16.992Z,22.43
2022-09-14T07:49:16.966Z,22.43
2022-09-14T07:50:16.953Z,22.43
2022-09-14T07:51:16.939Z,22.43
2022-09-14T07:52:16.953Z,22.45
2022-09-14T07:53:16.920Z,22.45
2022-09-14T07:54:16.941Z,22.45
2022-09-14T07:55:16.897Z,22.43
2022-09-14T07:56:16.895Z,22.45
2022-09-14T07:57:16.876Z,22.46
2022-09-14T07:58:16.866Z,22.46
2022-09-14T07:59:35.203Z,22.46
2022-09-14T08:00:17.843Z,22.47
2022-09-14T08:01:16.921Z,22.47
2022-09-14T08:02:16.889Z,22.46
2022-09-14T08:03:16.847Z,22.47
2022-09-14T08:04:16.823Z,22.47
2022-09-14T08:05:16.789Z,22.47
2022-09-14T08:06:16.783Z,22.46
2022-09-14T08:07:16.787Z,22.47
2022-09-14T08:08:16.756Z,22.49
2022-09-14T08:09:16.769Z,22.47
2022-09-14T08:10:16.736Z,22.49
2022-09-14T08:11:16.727Z,22.49
2022-09-14T08:12:16.738Z,22.47
2022-09-14T08:13:16.701Z,22.47
2022-09-14T08:14:16.715Z,22.47
2022-09-14T08:15:16.681Z,22.47
2022-09-14T08:16:16.734Z,22.49
2022-09-14T08:17:16.659Z,22.47
2022-09-14T08:18:16.647Z,22.47
2022-09-14T08:19:16.659Z,22.51
2022-09-14T08:20:16.649Z,22.47
2022-09-14T08:21:16.637Z,22.49
2022-09-14T08:22:16.628Z,22.47
2022-09-14T08:23:16.593Z,22.49
2022-09-14T08:24:16.586Z,22.49
2022-09-14T08:25:16.573Z,22.49
2022-09-14T08:26:16.565Z,22.47
2022-09-14T08:27:17.351Z,22.47
2022-09-14T08:28:16.539Z,22.47
2022-09-14T08:29:16.552Z,22.46
2022-09-14T08:30:16.519Z,22.47
2022-09-14T08:31:16.564Z,22.46
2022-09-14T08:32:16.499Z,22.46
2022-09-14T08:33:16.485Z,22.47
2022-09-14T08:34:16.517Z,22.47
2022-09-14T08:35:16.509Z,22.49
2022-09-14T08:36:16.455Z,22.49
2022-09-14T08:37:16.442Z,22.49
2022-09-14T08:38:16.432Z,22.49
2022-09-14T08:39:16.442Z,22.51
2022-09-14T08:40:16.495Z,22.51
2022-09-14T08:41:16.420Z,22.51
2022-09-14T08:42:16.389Z,22.51
2022-09-14T08:43:16.376Z,22.51
2022-09-14T08:44:16.404Z,22.51
2022-09-14T08:45:16.356Z,22.51
2022-09-14T08:46:16.349Z,22.52
2022-09-14T08:47:16.359Z,22.52
2022-09-14T08:48:16.323Z,22.52
2022-09-14T08:49:16.316Z,22.54
2022-09-14T08:50:16.325Z,22.52
2022-09-14T08:51:16.312Z,22.54
2022-09-14T08:52:19.861Z,22.54
2022-09-14T08:53:17.291Z,22.55
2022-09-14T08:54:16.261Z,22.55
2022-09-14T08:55:16.268Z,22.54
2022-09-14T08:56:16.238Z,22.54
2022-09-14T08:57:16.237Z,22.54
2022-09-14T08:58:16.217Z,22.52
2022-09-14T08:59:16.209Z,22.52
2022-09-14T09:00:16.193Z,22.52
2022-09-14T09:01:16.284Z,22.52
2022-09-14T09:02:16.173Z,22.51
2022-09-14T09:03:16.164Z,22.51
2022-09-14T09:04:16.240Z,22.51
2022-09-14T09:05:16.142Z,22.51
2022-09-14T09:06:16.435Z,22.49
2022-09-14T09:07:16.118Z,22.51
2022-09-14T09:08:16.154Z,22.49
2022-09-14T09:09:16.127Z,22.51
2022-09-14T09:10:16.089Z,22.49
2022-09-14T09:11:16.095Z,22.51
2022-09-14T09:12:16.063Z,22.52
2022-09-14T09:13:16.052Z,22.52
2022-09-14T09:14:18.428Z,22.52
2022-09-14T09:15:16.057Z,22.52
2022-09-14T09:16:16.089Z,22.51
2022-09-14T09:17:16.031Z,22.52
2022-09-14T09:18:16.035Z,22.51
2022-09-14T09:19:15.988Z,22.52
2022-09-14T09:20:16.061Z,22.52
2022-09-14T09:21:15.970Z,22.52
2022-09-14T09:22:15.957Z,22.52
2022-09-14T09:23:15.946Z,22.51
2022-09-14T09:24:16.015Z,22.52
2022-09-14T09:25:15.925Z,22.54
2022-09-14T09:26:15.913Z,22.54
2022-09-14T09:27:15.909Z,22.54
2022-09-14T09:28:15.913Z,22.54
2022-09-14T09:29:15.879Z,22.55
2022-09-14T09:30:15.928Z,22.54
2022-09-14T09:31:15.891Z,22.54
2022-09-14T09:32:15.851Z,22.55
2022-09-14T09:33:15.870Z,22.55
2022-09-14T09:34:15.834Z,22.54
2022-09-14T09:35:15.814Z,22.57
2022-09-14T09:36:15.809Z,22.54
2022-09-14T09:37:15.793Z,22.55
2022-09-14T09:38:15.786Z,22.57
2022-09-14T09:39:15.793Z,22.57
2022-09-14T09:40:15.999Z,22.55
2022-09-14T09:41:15.769Z,22.55
2022-09-14T09:42:15.763Z,22.57
2022-09-14T09:43:24.465Z,22.57
2022-09-14T09:44:16.742Z,22.57
2022-09-14T09:45:15.707Z,22.57
2022-09-14T09:46:15.820Z,22.55
2022-09-14T09:47:15.685Z,22.57
2022-09-14T09:48:15.680Z,22.57
2022-09-14T09:49:15.662Z,22.55
2022-09-14T09:50:15.761Z,22.55
2022-09-14T09:51:15.649Z,22.55
2022-09-14T09:52:15.658Z,22.52
2022-09-14T09:53:15.620Z,22.54
2022-09-14T09:54:15.619Z,22.51
2022-09-14T09:55:15.597Z,22.52
2022-09-14T09:56:15.616Z,22.54
2022-09-14T09:57:15.599Z,22.51
2022-09-14T09:58:15.569Z,22.52
2022-09-14T09:59:15.555Z,22.51
2022-09-14T10:00:15.547Z,22.51
2022-09-14T10:01:15.589Z,22.51
2022-09-14T10:02:15.590Z,22.51
2022-09-14T10:03:15.533Z,22.51
2022-09-14T10:04:15.502Z,22.51
2022-09-14T10:05:15.492Z,22.51
2022-09-14T10:06:15.480Z,22.49
2022-09-14T10:07:15.471Z,22.51
2022-09-14T10:08:15.488Z,22.51
2022-09-14T10:09:15.448Z,22.49
2022-09-14T10:10:15.461Z,22.51
2022-09-14T10:11:15.426Z,22.51
2022-09-14T10:12:15.522Z,22.51
2022-09-14T10:13:15.404Z,22.49
2022-09-14T10:14:15.395Z,22.51
2022-09-14T10:15:15.404Z,22.49
2022-09-14T10:16:15.428Z,22.51
2022-09-14T10:17:15.359Z,22.49
2022-09-14T10:18:15.363Z,22.49
2022-09-14T10:19:15.387Z,22.49
2022-09-14T10:20:15.353Z,22.49
2022-09-14T10:21:15.340Z,22.47
2022-09-14T10:22:17.361Z,22.49
2022-09-14T10:23:15.296Z,22.47
2022-09-14T10:24:15.287Z,22.47
2022-09-14T10:25:15.275Z,22.49
2022-09-14T10:26:15.286Z,22.47
2022-09-14T10:27:15.254Z,22.49
2022-09-14T10:28:15.270Z,22.49
2022-09-14T10:29:15.238Z,22.47
2022-09-14T10:30:15.224Z,22.49
2022-09-14T10:31:15.371Z,22.46
2022-09-14T10:32:15.202Z,22.49
2022-09-14T10:33:15.210Z,22.49
2022-09-14T10:34:17.303Z,22.49
2022-09-14T10:35:15.168Z,22.47
2022-09-14T10:36:15.159Z,22.49
2022-09-14T10:37:15.146Z,22.49
2022-09-14T10:38:15.159Z,22.46
2022-09-14T10:39:15.124Z,22.51
2022-09-14T10:40:15.196Z,22.49
2022-09-14T10:41:15.107Z,22.51
2022-09-14T10:42:15.094Z,22.51
2022-09-14T10:43:15.110Z,22.51
2022-09-14T10:44:15.178Z,22.52
2022-09-14T10:45:15.061Z,22.51
2022-09-14T10:46:15.102Z,22.51
2022-09-14T10:47:15.039Z,22.51
2022-09-14T10:48:15.052Z,22.51
2022-09-14T10:49:15.023Z,22.51
2022-09-14T10:50:15.008Z,22.51
2022-09-14T10:51:15.018Z,22.49
2022-09-14T10:52:14.985Z,22.51
2022-09-14T10:53:14.978Z,22.51
2022-09-14T10:54:14.964Z,22.52
2022-09-14T10:55:14.956Z,22.52
2022-09-14T10:56:14.972Z,22.52
2022-09-14T10:57:14.932Z,22.52
2022-09-14T10:58:20.093Z,22.54
2022-09-14T10:59:15.936Z,22.55
2022-09-14T11:00:14.933Z,22.55
2022-09-14T11:01:14.913Z,22.55
2022-09-14T11:02:15.006Z,22.57
2022-09-14T11:03:14.870Z,22.57
2022-09-14T11:04:14.880Z,22.57
2022-09-14T11:05:14.848Z,22.57
2022-09-14T11:06:14.835Z,22.57
2022-09-14T11:07:14.825Z,22.54
2022-09-14T11:08:14.815Z,22.54
2022-09-14T11:09:14.829Z,22.57
2022-09-14T11:10:14.795Z,22.54
2022-09-14T11:11:14.804Z,22.54
2022-09-14T11:12:14.792Z,22.54
2022-09-14T11:13:14.764Z,22.54
2022-09-14T11:14:14.749Z,22.54
2022-09-14T11:15:14.741Z,22.54
2022-09-14T11:16:14.859Z,22.54
2022-09-14T11:17:14.720Z,22.52
2022-09-14T11:18:14.706Z,22.54
2022-09-14T11:19:14.699Z,22.52
2022-09-14T11:20:14.685Z,22.55
2022-09-14T11:21:14.677Z,22.54
2022-09-14T11:22:14.688Z,22.55
2022-09-14T11:23:14.653Z,22.55
2022-09-14T11:24:14.662Z,22.55
2022-09-14T11:25:14.653Z,22.54
2022-09-14T11:26:14.654Z,22.54
2022-09-14T11:27:14.611Z,22.55
2022-09-14T11:28:14.599Z,22.54
2022-09-14T11:29:14.587Z,22.55
2022-09-14T11:30:14.599Z,22.54
2022-09-14T11:31:14.695Z,22.54
2022-09-14T11:32:21.464Z,22.54
2022-09-14T11:33:15.546Z,22.55
2022-09-14T11:34:14.537Z,22.55
2022-09-14T11:35:14.560Z,22.54
2022-09-14T11:36:14.518Z,22.55
2022-09-14T11:37:14.506Z,22.55
2022-09-14T11:38:14.490Z,22.54
2022-09-14T11:39:14.483Z,22.54
2022-09-14T11:40:14.529Z,22.54
2022-09-14T11:41:14.485Z,22.55
2022-09-14T11:42:14.449Z,22.55
2022-09-14T11:43:14.438Z,22.55
2022-09-14T11:44:14.426Z,22.55
2022-09-14T11:45:14.446Z,22.55
2022-09-14T11:46:14.468Z,22.54
2022-09-14T11:47:14.418Z,22.57
2022-09-14T11:48:41.239Z,22.57
2022-09-14T11:49:15.377Z,22.57
2022-09-14T11:50:14.362Z,22.57
2022-09-14T11:51:14.354Z,22.57
2022-09-14T11:52:14.364Z,22.57
2022-09-14T11:53:14.335Z,22.58
2022-09-14T11:54:14.318Z,22.58
2022-09-14T11:55:14.310Z,22.58
2022-09-14T11:56:14.298Z,22.58
2022-09-14T11:57:14.310Z,22.58
2022-09-14T11:58:14.276Z,22.60
2022-09-14T11:59:14.290Z,22.58
2022-09-14T12:00:14.255Z,22.60
2022-09-14T12:01:14.244Z,22.60
2022-09-14T12:02:14.314Z,22.60
2022-09-14T12:03:14.295Z,22.60
2022-09-14T12:04:14.368Z,22.61
2022-09-14T12:05:14.203Z,22.61
2022-09-14T12:06:14.190Z,22.61
2022-09-14T12:07:14.182Z,22.62
2022-09-14T12:08:14.168Z,22.62
2022-09-14T12:09:14.196Z,22.64
2022-09-14T12:10:14.146Z,22.64
2022-09-14T12:11:14.138Z,22.65
2022-09-14T12:12:14.126Z,22.64
2022-09-14T12:13:14.114Z,22.65
2022-09-14T12:14:14.102Z,22.62
2022-09-14T12:15:14.130Z,22.65
2022-09-14T12:16:14.143Z,22.65
2022-09-14T12:17:35.732Z,22.64
2022-09-14T12:18:15.060Z,22.65
2022-09-14T12:19:14.049Z,22.65
2022-09-14T12:20:17.257Z,22.67
2022-09-14T12:21:15.054Z,22.70
2022-09-14T12:22:14.031Z,22.72
2022-09-14T12:23:14.023Z,22.73
2022-09-14T12:24:14.006Z,22.73
2022-09-14T12:25:13.988Z,22.72
2022-09-14T12:26:13.997Z,22.73
2022-09-14T12:27:13.966Z,22.73
2022-09-14T12:28:13.954Z,22.72
2022-09-14T12:29:13.978Z,22.72
2022-09-14T12:30:13.933Z,22.70
2022-09-14T12:31:13.984Z,22.72
2022-09-14T12:32:13.911Z,22.70
2022-09-14T12:33:13.905Z,22.68
2022-09-14T12:34:13.892Z,22.67
2022-09-14T12:35:13.901Z,22.67
2022-09-14T12:36:13.896Z,22.67
2022-09-14T12:37:13.856Z,22.65
2022-09-14T12:38:13.869Z,22.65
2022-09-14T12:39:13.838Z,22.65
2022-09-14T12:40:13.921Z,22.64
2022-09-14T12:41:13.813Z,22.65
2022-09-14T12:42:13.801Z,22.64
2022-09-14T12:43:13.816Z,22.64
2022-09-14T12:44:13.780Z,22.64
2022-09-14T12:45:13.771Z,22.65
2022-09-14T12:46:13.801Z,22.64
2022-09-14T12:47:13.750Z,22.64
2022-09-14T12:48:13.761Z,22.64
2022-09-14T12:49:13.727Z,22.62
2022-09-14T12:50:13.718Z,22.62
2022-09-14T12:51:13.717Z,22.62
2022-09-14T12:52:13.718Z,22.61